Time;durP1;ratioP1;P1;durP2;ratioP2;P2;SDS_P1;SDS_P2;PMS_P1;PMS_P2;Temp;Humidity;BMP_temperature;BMP_pressure;BME280_temperature;BME280_humidity;BME280_pressure;Samples;Min_cycle;Max_cycle;Signal;HPM_P1;HPM_P2
2022/04/29 00:00:44;;;;;;;2.70;2.22;;;18.30;65.20;;;;;;10939899;32;20062;-73
2022/04/29 00:06:46;;;;;;;2.97;2.05;;;18.20;65.60;;;;;;10942589;32;20343;-73
2022/04/29 00:12:49;;;;;;;4.12;2.33;;;18.20;65.80;;;;;;10949231;32;20030;-73
2022/04/29 00:18:51;;;;;;;6.60;2.42;;;18.20;66.10;;;;;;10949031;32;20023;-73
2022/04/29 00:24:53;;;;;;;2.92;2.40;;;18.10;66.70;;;;;;10948849;32;20186;-73
2022/04/29 00:30:55;;;;;;;2.60;2.08;;;18.10;66.80;;;;;;10948917;32;20042;-73
2022/04/29 00:36:57;;;;;;;2.35;1.62;;;18.10;67.00;;;;;;10948553;32;20347;-73
2022/04/29 00:42:59;;;;;;;3.47;2.40;;;18.00;67.30;;;;;;10959897;32;20384;-73
2022/04/29 00:49:03;;;;;;;3.45;2.20;;;17.90;67.70;;;;;;10946166;32;20019;-73
2022/04/29 00:55:08;;;;;;;3.33;2.42;;;17.80;67.80;;;;;;10943852;32;20195;-73
2022/04/29 01:01:11;;;;;;;4.78;3.37;;;17.80;68.10;;;;;;10943754;32;20027;-73
2022/04/29 01:07:14;;;;;;;3.33;2.58;;;17.80;68.10;;;;;;10947506;32;20059;-73
2022/04/29 01:13:16;;;;;;;;;;;17.70;68.70;;;;;;10254852;32;22695856;-73
2022/04/29 01:19:18;;;;;;;3.08;1.87;;;17.80;68.90;;;;;;10867126;32;20474;-73
2022/04/29 01:25:20;;;;;;;2.47;2.03;;;17.80;69.00;;;;;;10868196;32;20292;-73
2022/04/29 01:31:24;;;;;;;3.30;2.20;;;17.80;68.80;;;;;;10868364;32;20089;-73
2022/04/29 01:37:27;;;;;;;4.18;2.12;;;17.80;68.50;;;;;;10867927;32;20023;-73
2022/04/29 01:43:29;;;;;;;3.55;2.35;;;17.80;68.40;;;;;;10896486;32;20027;-73
2022/04/29 01:49:31;;;;;;;2.25;1.70;;;17.80;68.40;;;;;;10908267;32;20023;-73
2022/04/29 01:55:34;;;;;;;3.08;2.22;;;17.80;68.30;;;;;;10903884;32;20073;-73
2022/04/29 02:01:37;;;;;;;4.65;2.40;;;17.70;68.50;;;;;;10903689;32;20398;-73
2022/04/29 02:07:40;;;;;;;2.92;2.33;;;17.60;68.60;;;;;;10907532;32;20058;-73
2022/04/29 02:13:47;;;;;;;1.80;1.62;;;17.50;68.80;;;;;;10907405;32;20045;-73
2022/04/29 02:19:50;;;;;;;4.78;3.00;;;17.50;68.90;;;;;;10907272;32;20053;-74
2022/04/29 02:25:52;;;;;;;4.55;2.87;;;17.30;69.40;;;;;;10906750;32;20031;-73
2022/04/29 02:31:58;;;;;;;3.28;2.20;;;17.30;69.40;;;;;;10906357;32;20054;-73
2022/04/29 02:38:00;;;;;;;2.67;2.35;;;17.30;69.20;;;;;;10906460;32;20019;-73
2022/04/29 02:44:02;;;;;;;3.58;2.67;;;17.20;69.40;;;;;;10906136;32;20038;-73
2022/04/29 02:50:06;;;;;;;3.83;2.70;;;17.10;69.30;;;;;;10906215;32;20312;-74
2022/04/29 02:56:09;;;;;;;2.78;2.28;;;17.00;69.70;;;;;;10906112;32;20058;-74
2022/04/29 03:02:13;;;;;;;3.10;2.28;;;17.00;70.20;;;;;;10901773;32;20106;-74
2022/04/29 03:08:15;;;;;;;4.50;2.62;;;16.90;70.20;;;;;;10905993;32;20026;-74
2022/04/29 03:14:17;;;;;;;5.12;2.42;;;16.80;70.50;;;;;;10901504;32;20023;-74
2022/04/29 03:20:20;;;;;;;6.37;2.87;;;16.80;70.70;;;;;;10905664;32;20427;-74
2022/04/29 03:26:22;;;;;;;2.58;1.98;;;16.70;71.10;;;;;;10905310;32;20023;-74
2022/04/29 03:32:24;;;;;;;5.25;3.15;;;16.70;71.60;;;;;;10905167;32;20387;-73
2022/04/29 03:38:30;;;;;;;3.70;2.67;;;16.70;71.60;;;;;;10904860;32;20316;-74
2022/04/29 03:44:32;;;;;;;6.10;3.67;;;16.60;71.30;;;;;;10904359;32;20023;-74
2022/04/29 03:50:34;;;;;;;5.47;3.87;;;16.60;71.30;;;;;;10904737;32;20047;-74
2022/04/29 03:56:36;;;;;;;4.93;3.45;;;16.60;71.50;;;;;;10904792;32;20030;-74
2022/04/29 04:02:39;;;;;;;8.45;3.33;;;16.50;70.90;;;;;;10904558;32;20015;-74
2022/04/29 04:08:41;;;;;;;3.75;2.75;;;16.30;71.00;;;;;;10904367;32;20027;-73
2022/04/29 04:14:44;;;;;;;4.95;3.97;;;16.20;71.40;;;;;;10904229;32;20038;-74
2022/04/29 04:20:48;;;;;;;3.25;2.55;;;16.00;71.50;;;;;;10904046;32;20042;-73
2022/04/29 04:26:50;;;;;;;3.70;2.97;;;16.10;71.50;;;;;;10903994;32;20340;-74
2022/04/29 04:32:53;;;;;;;4.72;3.28;;;16.00;71.60;;;;;;10904162;32;20028;-74
2022/04/29 04:38:55;;;;;;;6.05;3.50;;;16.00;71.70;;;;;;10904034;32;20332;-74
2022/04/29 04:44:58;;;;;;;4.00;3.10;;;16.00;71.60;;;;;;10904092;32;20057;-74
2022/04/29 04:51:03;;;;;;;6.57;3.78;;;16.00;71.40;;;;;;10903865;32;20015;-73
2022/04/29 04:57:06;;;;;;;5.40;3.12;;;15.80;71.50;;;;;;10907834;32;20031;-74
2022/04/29 05:03:08;;;;;;;4.93;3.55;;;15.90;71.70;;;;;;10906502;32;20355;-74
2022/04/29 05:09:12;;;;;;;4.00;3.20;;;16.00;71.50;;;;;;10910346;32;20027;-73
2022/04/29 05:15:14;;;;;;;4.45;3.12;;;16.00;71.40;;;;;;10909857;32;20011;-73
2022/04/29 05:21:17;;;;;;;4.50;3.05;;;16.00;71.50;;;;;;10909437;32;20039;-73
2022/04/29 05:27:19;;;;;;;3.97;2.87;;;16.00;71.60;;;;;;10909296;32;20024;-73
2022/04/29 05:33:24;;;;;;;8.10;3.28;;;16.00;71.80;;;;;;10909087;32;20465;-73
2022/04/29 05:45:52;;;;;;;4.47;3.35;;;16.30;72.10;;;;;;10908418;32;20031;-73
2022/04/29 05:51:54;;;;;;;4.68;3.03;;;16.40;71.90;;;;;;10908522;32;20085;-73
2022/04/29 05:57:57;;;;;;;4.85;3.60;;;16.60;71.70;;;;;;10895123;32;20045;-73
2022/04/29 06:03:59;;;;;;;4.72;3.05;;;16.70;71.50;;;;;;10907652;32;20058;-73
2022/04/29 06:10:02;;;;;;;3.05;2.40;;;16.80;71.30;;;;;;10893249;32;20032;-73
2022/04/29 06:16:06;;;;;;;4.32;2.60;;;17.00;71.10;;;;;;10897154;32;20085;-74
2022/04/29 06:22:10;;;;;;;2.90;2.00;;;17.20;70.90;;;;;;10893281;32;20078;-74
2022/04/29 06:28:14;;;;;;;4.72;2.53;;;17.30;70.60;;;;;;10879854;32;20023;-74
2022/04/29 06:34:17;;;;;;;3.17;2.00;;;17.50;69.90;;;;;;10906056;32;20054;-74
2022/04/29 06:40:20;;;;;;;3.30;2.62;;;17.60;69.10;;;;;;10906914;32;20404;-74
2022/04/29 06:46:25;;;;;;;3.42;1.95;;;17.70;67.70;;;;;;10906255;32;20023;-74
2022/04/29 06:52:30;;;;;;;3.95;2.50;;;17.80;67.70;;;;;;10902239;32;20046;-74
2022/04/29 06:58:34;;;;;;;2.42;1.90;;;17.80;66.50;;;;;;10885847;32;20054;-74
2022/04/29 07:04:38;;;;;;;3.85;2.33;;;17.90;66.70;;;;;;10901308;32;20031;-74
2022/04/29 07:10:40;;;;;;;5.68;3.92;;;18.00;65.20;;;;;;10904324;32;20049;-74
2022/04/29 07:16:46;;;;;;;4.72;2.85;;;18.00;64.00;;;;;;10904715;32;20039;-74
2022/04/29 07:22:49;;;;;;;4.22;1.98;;;18.10;63.60;;;;;;10902676;32;20061;-74
2022/04/29 07:28:52;;;;;;;3.67;2.20;;;18.20;63.80;;;;;;10905033;32;20057;-74
2022/04/29 07:47:40;;;;;;;3.90;2.83;;;18.50;61.10;;;;;;10905424;32;20058;-72
2022/04/29 07:53:42;;;;;;;3.92;2.40;;;18.50;61.40;;;;;;10904561;32;20343;-74
2022/04/29 07:59:44;;;;;;;4.90;2.85;;;18.60;61.20;;;;;;10904664;32;20104;-74
2022/04/29 08:05:52;;;;;;;3.15;2.30;;;18.60;61.40;;;;;;10904659;32;20031;-73
2022/04/29 08:11:55;;;;;;;4.57;2.97;;;18.70;61.80;;;;;;10904386;32;20074;-74
2022/04/29 08:18:00;;;;;;;5.43;1.92;;;18.80;60.20;;;;;;10904269;32;20042;-75
2022/04/29 08:24:02;;;;;;;4.75;2.80;;;18.90;59.80;;;;;;10904141;32;20026;-74
2022/04/29 08:30:06;;;;;;;3.97;2.40;;;19.00;59.70;;;;;;10894411;32;20363;-73
2022/04/29 08:36:08;;;;;;;5.43;3.00;;;19.10;59.10;;;;;;10910666;32;20027;-73
2022/04/29 08:42:11;;;;;;;3.03;2.03;;;19.20;58.20;;;;;;10910478;32;20024;-72
2022/04/29 08:48:13;;;;;;;3.08;2.10;;;19.30;57.80;;;;;;10910008;32;20027;-72
2022/04/29 08:58:36;;;;;;;4.22;3.05;;;19.30;56.40;;;;;;10896837;32;20046;-73
2022/04/29 09:00:41;;;;;;;5.80;3.17;;;19.50;55.70;;;;;;10910251;32;20031;-73
2022/04/29 09:06:50;;;;;;;3.60;2.83;;;19.60;55.40;;;;;;10905778;32;20027;-71
2022/04/29 09:12:52;;;;;;;8.70;2.92;;;19.70;54.70;;;;;;10909402;32;20027;-72
2022/04/29 09:18:55;;;;;;;3.50;2.45;;;19.80;55.80;;;;;;10947453;27;20061;-72
2022/04/29 09:25:03;;;;;;;8.25;2.45;;;19.80;54.70;;;;;;10928091;32;20046;-73
2022/04/29 09:31:07;;;;;;;10.43;3.30;;;19.90;55.30;;;;;;10946444;32;20203;-73
2022/04/29 09:37:18;;;;;;;18.87;4.10;;;20.00;55.10;;;;;;10947608;32;20066;-71
2022/04/29 09:43:42;;;;;;;9.65;2.92;;;20.20;53.70;;;;;;10931758;32;20019;-73
2022/04/29 09:49:56;;;;;;;5.22;2.10;;;20.30;53.30;;;;;;10941323;32;20050;-72
2022/04/29 09:56:07;;;;;;;3.90;2.92;;;20.40;53.70;;;;;;10946127;32;20035;-73
2022/04/29 10:02:10;;;;;;;2.53;1.90;;;20.60;53.10;;;;;;10941511;32;20022;-72
2022/04/29 10:08:13;;;;;;;4.20;3.12;;;20.80;51.80;;;;;;10945608;32;20035;-72
2022/04/29 10:14:17;;;;;;;2.42;1.90;;;20.80;52.80;;;;;;10945097;32;20335;-72
2022/04/29 10:26:42;;;;;;;3.90;2.87;;;21.00;51.90;;;;;;10942657;32;20383;-72
2022/04/29 10:33:22;;;;;;;4.43;2.40;;;21.20;51.20;;;;;;10943447;32;20050;-71
2022/04/29 10:39:24;;;;;;;5.35;2.72;;;21.30;50.30;;;;;;10787677;33;20032;-72
2022/04/29 10:45:26;;;;;;;3.28;1.77;;;21.40;50.10;;;;;;10790849;33;20037;-71
2022/04/29 10:51:29;;;;;;;2.72;1.75;;;21.70;48.80;;;;;;10790588;33;20039;-71
2022/04/29 10:57:39;;;;;;;2.40;1.55;;;22.00;48.50;;;;;;10791272;33;20423;-71
2022/04/29 11:03:45;;;;;;;3.47;1.70;;;22.30;48.00;;;;;;10790712;33;20040;-72
2022/04/29 11:09:47;;;;;;;4.40;2.60;;;22.40;47.80;;;;;;10783396;33;20029;-71
2022/04/29 11:15:49;;;;;;;25.27;3.17;;;22.40;47.40;;;;;;10872454;32;20046;-72
2022/04/29 11:28:22;;;;;;;2.70;2.12;;;22.80;46.30;;;;;;10905190;32;20062;-73
2022/04/29 11:34:26;;;;;;;4.35;2.40;;;23.00;46.10;;;;;;10905070;32;20031;-72
2022/04/29 11:40:29;;;;;;;3.45;1.95;;;23.40;44.60;;;;;;10901152;32;20425;-72
2022/04/29 11:46:31;;;;;;;5.37;2.95;;;23.60;45.00;;;;;;10903572;32;20089;-72
2022/04/29 11:52:36;;;;;;;2.55;2.05;;;23.80;44.10;;;;;;10886564;32;20388;-72
2022/04/29 11:58:38;;;;;;;5.70;3.45;;;23.80;44.20;;;;;;10903853;32;20031;-72
2022/04/29 12:05:20;;;;;;;15.05;4.12;;;24.00;43.30;;;;;;10902695;32;20026;-72
2022/04/29 12:11:50;;;;;;;4.78;3.03;;;24.10;42.20;;;;;;10760322;33;20024;-72
2022/04/29 12:18:14;;;;;;;4.28;2.85;;;24.00;41.40;;;;;;10756216;33;20055;-71
2022/04/29 12:24:19;;;;;;;13.85;3.42;;;24.10;41.20;;;;;;10759316;33;20032;-72
2022/04/29 12:37:23;;;;;;;4.97;3.75;;;23.90;39.70;;;;;;10758651;33;20401;-72
2022/04/29 12:43:25;;;;;;;6.55;3.95;;;23.80;39.70;;;;;;10761228;32;20033;-73
2022/04/29 12:49:27;;;;;;;8.68;3.33;;;23.80;40.00;;;;;;10947156;32;20339;-72
2022/04/29 12:55:36;;;;;;;5.90;3.03;;;24.00;40.60;;;;;;10947449;32;20045;-72
2022/04/29 13:01:41;;;;;;;2.53;2.30;;;24.00;39.80;;;;;;10946774;32;20323;-71
2022/04/29 13:07:44;;;;;;;4.12;3.05;;;24.00;39.80;;;;;;10946502;32;20054;-72
2022/04/29 13:13:47;;;;;;;46.50;39.67;;;23.90;41.40;;;;;;10932565;32;20027;-71
2022/04/29 13:19:50;;;;;;;10.15;5.97;;;23.80;40.80;;;;;;10946865;32;20023;-72
2022/04/29 13:25:56;;;;;;;3.95;2.85;;;23.90;40.40;;;;;;10946714;32;20383;-72
2022/04/29 13:31:58;;;;;;;4.22;2.83;;;23.90;40.50;;;;;;10938870;32;20312;-71
2022/04/29 13:38:13;;;;;;;6.62;2.80;;;23.90;40.00;;;;;;10908106;32;20042;-71
2022/04/29 13:44:16;;;;;;;4.30;2.42;;;24.00;40.30;;;;;;10891780;32;20410;-73
2022/04/29 13:50:18;;;;;;;2.15;1.52;;;24.00;39.50;;;;;;10920536;32;20394;-72
2022/04/29 13:56:20;;;;;;;2.87;1.77;;;24.20;39.10;;;;;;10921755;32;20031;-71
2022/04/29 14:02:22;;;;;;;2.90;2.50;;;24.30;38.70;;;;;;10932269;32;20477;-73
2022/04/29 14:08:32;;;;;;;3.47;1.75;;;24.30;38.20;;;;;;10931836;32;20084;-73
2022/04/29 14:14:34;;;;;;;;;;;24.20;37.80;;;;;;10915337;32;20423;-73
2022/04/29 14:20:37;;;;;;;2.92;2.22;;;24.20;37.80;;;;;;10916538;32;20278;-69
2022/04/29 14:26:39;;;;;;;2.58;1.62;;;24.20;36.70;;;;;;10910886;32;20324;-69
2022/04/29 14:32:43;;;;;;;2.03;1.58;;;24.30;37.60;;;;;;10920604;32;20058;-69
2022/04/29 14:38:50;;;;;;;;;;;24.40;37.80;;;;;;10904880;32;20038;-69
2022/04/29 14:44:53;;;;;;;3.97;2.45;;;24.50;37.20;;;;;;10926500;32;20242;-69
2022/04/29 14:50:55;;;;;;;2.90;1.90;;;24.60;36.40;;;;;;10938327;32;20053;-69
2022/04/29 14:56:57;;;;;;;8.00;5.47;;;24.60;36.30;;;;;;10915987;32;20031;-70
2022/04/29 15:02:59;;;;;;;10.55;2.87;;;24.80;35.90;;;;;;10940818;32;20046;-69
2022/04/29 15:15:54;;;;;;;3.47;1.85;;;25.30;35.70;;;;;;10941465;32;20049;-70
2022/04/29 15:21:57;;;;;;;3.53;1.85;;;25.40;35.00;;;;;;10925020;32;20045;-70
2022/04/29 15:27:59;;;;;;;7.95;5.25;;;25.50;35.40;;;;;;10920269;32;20057;-69
2022/04/29 15:34:01;;;;;;;5.45;4.25;;;25.70;35.30;;;;;;10899595;32;20019;-70
2022/04/29 15:40:05;;;;;;;4.53;2.25;;;25.50;34.80;;;;;;10903143;32;20031;-69
2022/04/29 15:46:07;;;;;;;4.25;1.87;;;25.60;34.20;;;;;;10903579;32;20154;-70
2022/04/29 15:52:09;;;;;;;4.45;2.37;;;25.60;34.10;;;;;;10898544;32;20113;-69
2022/04/29 15:58:13;;;;;;;3.37;2.08;;;25.70;33.90;;;;;;10903362;32;20054;-69
2022/04/29 16:04:15;;;;;;;8.55;2.00;;;25.80;33.30;;;;;;10903256;32;20019;-69
2022/04/29 16:10:17;;;;;;;4.85;2.35;;;25.80;33.00;;;;;;10904155;32;20031;-69
2022/04/29 16:16:20;;;;;;;3.33;2.35;;;25.80;33.00;;;;;;10902834;32;20344;-69
2022/04/29 16:28:44;;;;;;;4.22;2.67;;;25.80;32.90;;;;;;10935767;32;20038;-69
2022/04/29 16:34:46;;;;;;;2.47;1.80;;;25.70;32.50;;;;;;10940591;32;20105;-70
2022/04/29 16:40:48;;;;;;;2.45;1.50;;;25.60;33.20;;;;;;10923862;32;20058;-70
2022/04/29 16:47:19;;;;;;;2.70;1.65;;;25.40;33.70;;;;;;10901767;32;20024;-69
2022/04/29 16:53:22;;;;;;;2.72;1.50;;;25.30;34.20;;;;;;10904695;32;20058;-70
2022/04/29 16:59:24;;;;;;;3.40;1.45;;;26.20;34.10;;;;;;10896323;32;20028;-69
2022/04/29 17:05:26;;;;;;;0.90;0.85;;;26.80;33.30;;;;;;10907623;32;20063;-70
2022/04/29 17:11:29;;;;;;;2.50;1.50;;;26.30;34.10;;;;;;10909328;32;20049;-69
2022/04/29 17:17:31;;;;;;;2.55;1.50;;;25.60;35.20;;;;;;10939543;27;20323;-70
2022/04/29 17:23:33;;;;;;;3.87;1.52;;;25.30;35.80;;;;;;10942323;32;20027;-70
2022/04/29 17:29:38;;;;;;;1.95;1.45;;;25.40;35.80;;;;;;10946672;32;20026;-69
2022/04/29 17:35:40;;;;;;;3.75;1.48;;;25.30;35.60;;;;;;10933002;32;20118;-69
2022/04/29 17:48:04;;;;;;;3.10;2.10;;;24.90;36.30;;;;;;10945790;32;20034;-71
2022/04/29 17:54:06;;;;;;;3.72;1.50;;;24.80;36.50;;;;;;10945489;32;20023;-70
2022/04/29 18:00:10;;;;;;;2.90;1.67;;;24.40;36.90;;;;;;10942259;32;20035;-69
2022/04/29 18:06:14;;;;;;;3.70;2.22;;;24.00;37.60;;;;;;10944663;32;20018;-69
2022/04/29 18:12:25;;;;;;;10.00;1.70;;;23.60;38.30;;;;;;10944438;32;20082;-69
2022/04/29 18:18:28;;;;;;;4.18;1.55;;;23.30;39.10;;;;;;10943486;32;20065;-69
2022/04/29 18:24:42;;;;;;;2.30;1.40;;;23.00;39.70;;;;;;10944169;32;20019;-69
2022/04/29 18:30:45;;;;;;;2.53;1.73;;;22.70;40.70;;;;;;10942629;32;20045;-69
2022/04/29 18:36:53;;;;;;;1.92;1.35;;;22.50;41.40;;;;;;10942285;32;20050;-69
2022/04/29 18:43:23;;;;;;;4.72;2.42;;;22.30;41.90;;;;;;10943417;32;20335;-69
2022/04/29 18:49:28;;;;;;;6.18;3.33;;;22.10;42.40;;;;;;10925822;32;20031;-69
2022/04/29 18:55:31;;;;;;;3.90;2.47;;;22.00;42.90;;;;;;10920273;32;20368;-69
2022/04/29 19:01:34;;;;;;;6.90;2.42;;;21.80;43.30;;;;;;10926444;32;20058;-69
2022/04/29 19:07:36;;;;;;;5.28;2.62;;;21.80;43.70;;;;;;10929360;32;20042;-69
2022/04/29 19:13:40;;;;;;;9.10;2.62;;;21.60;44.10;;;;;;10928270;32;20049;-69
2022/04/29 19:19:42;;;;;;;5.75;2.72;;;21.50;44.50;;;;;;10938053;32;20015;-69
2022/04/29 19:26:12;;;;;;;4.40;2.90;;;21.30;44.90;;;;;;10942088;32;20061;-69
2022/04/29 19:32:17;;;;;;;4.30;3.12;;;21.30;45.20;;;;;;10941837;32;20030;-69
2022/04/29 19:38:24;;;;;;;5.00;3.03;;;21.10;45.50;;;;;;10941910;32;20039;-69
2022/04/29 19:44:27;;;;;;;10.32;3.03;;;20.90;45.90;;;;;;10928324;32;20027;-69
2022/04/29 19:50:29;;;;;;;5.20;3.08;;;20.80;47.50;;;;;;10941316;32;20423;-69
2022/04/29 20:09:29;;;;;;;4.65;2.20;;;20.50;49.80;;;;;;10941158;32;20058;-69
2022/04/29 20:16:23;;;;;;;7.22;3.80;;;20.40;50.00;;;;;;10908809;32;20038;-69
2022/04/29 20:22:33;;;;;;;5.72;3.37;;;20.40;50.50;;;;;;10704769;33;20420;-69
2022/04/29 20:28:35;;;;;;;7.25;3.95;;;20.30;51.10;;;;;;10730256;33;20059;-69
2022/04/29 20:34:38;;;;;;;5.15;2.72;;;20.30;51.40;;;;;;10758437;33;20044;-73
2022/04/29 20:47:01;;;;;;;6.70;3.75;;;20.00;52.30;;;;;;10758540;33;20393;-69
2022/04/29 20:53:04;;;;;;;4.40;2.90;;;19.90;52.80;;;;;;10760945;32;20032;-69
2022/04/29 20:59:06;;;;;;;6.18;3.97;;;19.80;53.50;;;;;;10909803;32;20058;-69
2022/04/29 21:05:09;;;;;;;6.22;3.62;;;19.80;54.50;;;;;;10909383;32;20339;-70
2022/04/29 21:11:14;;;;;;;5.72;3.22;;;19.80;55.20;;;;;;10909300;32;20031;-70
2022/04/29 21:17:25;;;;;;;6.05;3.60;;;19.70;55.50;;;;;;10909401;32;20023;-69
2022/04/29 21:23:39;;;;;;;9.00;5.20;;;19.60;55.70;;;;;;10908994;32;20059;-69
2022/04/29 21:36:02;;;;;;;4.10;2.28;;;19.40;56.20;;;;;;10907729;32;20031;-69
2022/04/29 21:42:05;;;;;;;5.12;3.47;;;19.30;56.70;;;;;;10908463;32;20316;-69
2022/04/29 21:48:10;;;;;;;4.65;3.62;;;19.20;57.00;;;;;;10907837;32;20071;-73
2022/04/29 21:54:14;;;;;;;5.87;3.42;;;19.10;57.40;;;;;;10908121;32;20407;-73
2022/04/29 22:00:39;;;;;;;6.37;3.70;;;19.00;57.70;;;;;;10907926;32;20054;-73
2022/04/29 22:06:42;;;;;;;4.22;3.53;;;19.00;58.10;;;;;;10907617;32;20057;-73
2022/04/29 22:12:44;;;;;;;7.37;4.95;;;18.90;58.30;;;;;;10892137;32;20023;-73
2022/04/29 22:18:47;;;;;;;8.13;4.12;;;18.90;58.60;;;;;;10902934;32;20023;-72
2022/04/29 22:24:50;;;;;;;4.85;3.45;;;18.80;58.80;;;;;;10906804;32;20028;-72
2022/04/29 22:30:56;;;;;;;5.05;3.55;;;18.80;59.10;;;;;;10906801;32;20331;-72
2022/04/29 22:36:58;;;;;;;4.90;3.42;;;18.70;59.20;;;;;;10906585;32;20031;-72
2022/04/29 22:43:02;;;;;;;4.55;3.15;;;18.60;59.50;;;;;;10906340;32;20394;-72
2022/04/29 22:49:04;;;;;;;4.72;3.12;;;18.60;60.20;;;;;;10905877;32;20031;-73
2022/04/29 22:55:42;;;;;;;6.45;4.57;;;18.50;61.80;;;;;;10892604;32;20054;-73
2022/04/29 23:01:45;;;;;;;7.47;4.67;;;18.40;63.10;;;;;;10905690;32;20044;-73
2022/04/29 23:08:10;;;;;;;5.07;3.67;;;18.30;63.60;;;;;;10905485;32;20101;-73
2022/04/29 23:14:13;;;;;;;6.97;5.05;;;18.30;63.40;;;;;;10905275;32;20019;-73
2022/04/29 23:20:16;;;;;;;6.00;4.20;;;18.20;63.90;;;;;;10905047;32;20050;-73
2022/04/29 23:33:03;;;;;;;5.80;3.97;;;18.00;63.70;;;;;;10827387;32;20305;-73
2022/04/29 23:39:05;;;;;;;10.10;6.37;;;17.90;63.80;;;;;;10826574;32;20059;-73
2022/04/29 23:45:10;;;;;;;7.18;4.32;;;17.90;63.70;;;;;;10825890;32;20112;-73
2022/04/29 23:51:13;;;;;;;11.80;6.22;;;17.90;63.80;;;;;;10826687;32;20058;-73
2022/04/29 23:57:16;;;;;;;7.60;5.43;;;17.80;64.20;;;;;;10826931;32;20369;-73
